createdAt,value
2018-01-21T00:01:46.073Z,28.80
2018-01-21T00:04:13.546Z,27.65
2018-01-21T00:06:40.993Z,28.20
2018-01-21T00:09:08.429Z,31.70
2018-01-21T00:11:35.866Z,27.40
2018-01-21T00:14:04.058Z,29.50
2018-01-21T00:16:31.502Z,29.92
2018-01-21T00:18:58.933Z,29.30
2018-01-21T00:21:26.360Z,28.83
2018-01-21T00:23:53.794Z,26.80
2018-01-21T00:26:21.234Z,28.90
2018-01-21T00:28:48.662Z,26.42
2018-01-21T00:31:16.903Z,27.52
2018-01-21T00:33:44.436Z,28.15
2018-01-21T00:36:11.921Z,27.40
2018-01-21T00:38:39.369Z,28.80
2018-01-21T00:41:06.830Z,29.37
2018-01-21T00:43:34.254Z,27.98
2018-01-21T00:46:01.703Z,27.80
2018-01-21T00:48:29.185Z,26.62
2018-01-21T00:50:56.734Z,28.15
2018-01-21T00:53:24.205Z,27.17
2018-01-21T00:55:51.637Z,27.65
2018-01-21T00:58:19.074Z,28.33
2018-01-21T01:00:46.514Z,27.15
2018-01-21T01:03:14.037Z,30.92
2018-01-21T01:05:41.466Z,28.80
2018-01-21T01:08:08.902Z,29.17
2018-01-21T01:10:36.401Z,30.20
2018-01-21T01:13:03.845Z,27.70
2018-01-21T01:15:31.313Z,30.83
2018-01-21T01:17:58.765Z,29.70
2018-01-21T01:20:26.197Z,28.10
2018-01-21T01:22:53.634Z,28.35
2018-01-21T01:25:21.057Z,27.45
2018-01-21T01:27:48.496Z,28.65
2018-01-21T01:30:15.945Z,28.05
2018-01-21T01:32:43.397Z,28.67
2018-01-21T01:35:10.834Z,28.20
2018-01-21T01:37:38.278Z,27.75
2018-01-21T01:40:05.715Z,29.00
2018-01-21T01:42:33.914Z,28.65
2018-01-21T01:45:01.406Z,28.38
2018-01-21T01:47:28.862Z,27.70
2018-01-21T01:49:56.313Z,29.52
2018-01-21T01:52:23.962Z,30.00
2018-01-21T01:54:51.442Z,28.90
2018-01-21T01:57:18.877Z,29.52
2018-01-21T01:59:46.342Z,27.65
2018-01-21T02:02:13.887Z,27.37
2018-01-21T02:04:41.294Z,27.40
2018-01-21T02:07:08.731Z,27.50
2018-01-21T02:09:36.158Z,27.45
2018-01-21T02:12:03.607Z,28.48
2018-01-21T02:14:31.029Z,27.85
2018-01-21T02:16:59.259Z,27.15
2018-01-21T02:19:26.707Z,28.98
2018-01-21T02:21:54.143Z,28.25
2018-01-21T02:24:21.569Z,27.33
2018-01-21T02:26:49.773Z,25.95
2018-01-21T02:29:17.245Z,26.67
2018-01-21T02:31:44.686Z,27.27
2018-01-21T02:34:12.162Z,26.95
2018-01-21T02:36:39.706Z,26.02
2018-01-21T02:39:07.275Z,26.17
2018-01-21T02:41:34.742Z,26.27
2018-01-21T02:44:02.177Z,25.80
2018-01-21T02:46:29.645Z,25.90
2018-01-21T02:48:57.089Z,26.05
2018-01-21T02:51:24.562Z,25.20
2018-01-21T02:53:52.010Z,25.48
2018-01-21T02:56:19.475Z,24.77
2018-01-21T02:58:46.920Z,25.48
2018-01-21T03:01:14.337Z,25.92
2018-01-21T03:03:42.555Z,25.52
2018-01-21T03:06:09.981Z,25.62
2018-01-21T03:08:37.473Z,24.30
2018-01-21T03:11:04.933Z,26.33
2018-01-21T03:13:32.398Z,26.10
2018-01-21T03:15:59.842Z,24.60
2018-01-21T03:18:27.304Z,26.48
2018-01-21T03:20:54.771Z,25.75
2018-01-21T03:23:22.314Z,26.27
2018-01-21T03:25:49.845Z,26.15
2018-01-21T03:28:17.310Z,25.83
2018-01-21T03:30:44.717Z,24.77
2018-01-21T03:33:12.236Z,25.70
2018-01-21T03:35:39.665Z,25.17
2018-01-21T03:38:07.155Z,24.60
2018-01-21T03:40:34.615Z,26.42
2018-01-21T03:43:02.253Z,25.55
2018-01-21T03:45:29.675Z,27.10
2018-01-21T03:47:57.907Z,25.77
2018-01-21T03:50:25.338Z,27.25
2018-01-21T03:52:52.815Z,27.27
2018-01-21T03:55:20.265Z,26.02
2018-01-21T03:57:47.810Z,26.10
2018-01-21T04:00:15.217Z,26.05
2018-01-21T04:02:43.438Z,26.05
2018-01-21T04:05:10.878Z,28.35
2018-01-21T04:07:38.322Z,26.62
2018-01-21T04:10:06.627Z,26.50
2018-01-21T04:12:34.101Z,26.93
2018-01-21T04:15:01.558Z,26.90
2018-01-21T04:17:29.233Z,26.17
2018-01-21T04:19:56.687Z,27.67
2018-01-21T04:22:24.229Z,26.33
2018-01-21T04:24:51.686Z,27.37
2018-01-21T04:27:19.145Z,27.90
2018-01-21T04:29:46.581Z,27.50
2018-01-21T04:32:14.017Z,30.33
2018-01-21T04:34:41.466Z,28.42
2018-01-21T04:37:09.697Z,26.90
2018-01-21T04:39:37.133Z,27.85
2018-01-21T04:42:04.610Z,27.15
2018-01-21T04:44:32.142Z,27.48
2018-01-21T04:46:59.621Z,27.23
2018-01-21T04:49:27.177Z,26.33
2018-01-21T04:51:54.614Z,26.83
2018-01-21T04:54:22.061Z,25.90
2018-01-21T04:56:49.549Z,26.20
2018-01-21T04:59:17.001Z,27.25
2018-01-21T05:01:44.493Z,26.70
2018-01-21T05:04:12.737Z,27.17
2018-01-21T05:06:40.181Z,27.53
2018-01-21T05:09:07.642Z,26.10
2018-01-21T05:11:35.073Z,27.23
2018-01-21T05:14:02.510Z,26.15
2018-01-21T05:16:29.945Z,27.10
2018-01-21T05:18:58.194Z,28.90
2018-01-21T05:21:25.628Z,28.42
2018-01-21T05:23:53.053Z,28.40
2018-01-21T05:26:21.246Z,27.55
2018-01-21T05:28:48.812Z,28.00
2018-01-21T05:31:16.286Z,27.52
2018-01-21T05:33:43.723Z,27.95
2018-01-21T05:36:11.149Z,28.83
2018-01-21T05:38:39.362Z,28.50
2018-01-21T05:41:06.810Z,29.63
2018-01-21T05:43:34.265Z,30.40
2018-01-21T05:46:01.762Z,29.17
2018-01-21T05:48:29.189Z,29.58
2018-01-21T05:50:56.658Z,30.70
2018-01-21T05:53:24.122Z,30.98
2018-01-21T05:55:51.666Z,29.67
2018-01-21T05:58:19.099Z,29.65
2018-01-21T06:00:46.530Z,31.35
2018-01-21T06:03:14.757Z,29.23
2018-01-21T06:05:42.217Z,30.08
2018-01-21T06:08:09.665Z,31.80
2018-01-21T06:10:37.113Z,29.55
2018-01-21T06:13:04.561Z,30.27
2018-01-21T06:15:32.039Z,30.42
2018-01-21T06:17:59.493Z,29.50
2018-01-21T06:20:26.921Z,30.42
2018-01-21T06:22:54.358Z,30.60
2018-01-21T06:25:21.858Z,30.60
2018-01-21T06:27:49.286Z,31.45
2018-01-21T06:30:16.722Z,30.48
2018-01-21T06:32:45.053Z,36.20
2018-01-21T06:35:12.606Z,38.55
2018-01-21T06:37:40.062Z,39.38
2018-01-21T06:40:07.520Z,40.97
2018-01-21T06:42:34.974Z,42.65
2018-01-21T06:45:02.410Z,42.55
2018-01-21T06:47:29.883Z,43.10
2018-01-21T06:49:57.337Z,41.80
2018-01-21T06:52:24.773Z,40.25
2018-01-21T06:54:52.252Z,39.08
2018-01-21T06:57:19.684Z,35.63
2018-01-21T06:59:47.166Z,34.85
2018-01-21T07:02:14.621Z,35.47
2018-01-21T07:04:42.060Z,36.40
2018-01-21T07:07:09.533Z,35.70
2018-01-21T07:09:36.973Z,36.28
2018-01-21T07:12:04.402Z,36.40
2018-01-21T07:14:32.616Z,39.78
2018-01-21T07:17:00.048Z,37.13
2018-01-21T07:19:27.535Z,36.72
2018-01-21T07:21:54.990Z,39.38
2018-01-21T07:24:22.441Z,36.20
2018-01-21T07:26:49.869Z,40.70
2018-01-21T07:29:17.310Z,35.33
2018-01-21T07:31:45.516Z,38.05
2018-01-21T07:34:12.989Z,37.20
2018-01-21T07:36:40.430Z,40.45
2018-01-21T07:39:07.913Z,41.40
2018-01-21T07:41:35.350Z,35.40
2018-01-21T07:44:02.813Z,40.55
2018-01-21T07:46:30.355Z,39.58
2018-01-21T07:48:57.833Z,38.83
2018-01-21T07:51:25.268Z,38.17
2018-01-21T07:53:52.714Z,37.20
2018-01-21T07:56:20.141Z,40.50
2018-01-21T07:58:48.357Z,38.40
2018-01-21T08:01:15.822Z,36.78
2018-01-21T08:03:43.273Z,39.35
2018-01-21T08:06:10.745Z,39.05
2018-01-21T08:08:38.201Z,42.35
2018-01-21T08:11:05.657Z,40.33
2018-01-21T08:13:33.089Z,38.03
2018-01-21T08:16:00.577Z,37.47
2018-01-21T08:18:28.018Z,36.80
2018-01-21T08:20:55.460Z,35.13
2018-01-21T08:23:22.894Z,35.78
2018-01-21T08:25:50.348Z,35.08
2018-01-21T08:28:17.785Z,37.75
2018-01-21T08:30:46.022Z,35.88
2018-01-21T08:33:13.457Z,35.27
2018-01-21T08:35:46.569Z,37.60
2018-01-21T08:38:19.630Z,36.45
2018-01-21T08:40:52.929Z,35.88
2018-01-21T08:43:20.354Z,35.03
2018-01-21T08:45:48.569Z,35.33
2018-01-21T08:48:16.005Z,35.50
2018-01-21T08:50:43.438Z,36.13
2018-01-21T08:53:11.633Z,34.53
2018-01-21T08:55:39.113Z,35.28
2018-01-21T08:58:06.540Z,35.55
2018-01-21T09:00:33.978Z,34.35
2018-01-21T09:03:02.174Z,33.00
2018-01-21T09:05:29.745Z,37.40
2018-01-21T09:07:57.303Z,39.95
2018-01-21T09:10:24.721Z,36.58
2018-01-21T09:12:52.922Z,36.10
2018-01-21T09:15:20.359Z,34.55
2018-01-21T09:17:48.577Z,37.33
2018-01-21T09:20:16.138Z,34.42
2018-01-21T09:22:43.565Z,33.15
2018-01-21T09:25:11.054Z,33.75
2018-01-21T09:27:38.509Z,34.15
2018-01-21T09:30:05.991Z,33.88
2018-01-21T09:32:33.378Z,35.20
2018-01-21T09:35:00.940Z,33.30
2018-01-21T09:37:29.233Z,30.92
2018-01-21T09:39:56.649Z,32.00
2018-01-21T09:42:24.859Z,30.20
2018-01-21T09:44:52.341Z,34.45
2018-01-21T09:47:19.808Z,28.55
2018-01-21T09:49:47.345Z,32.50
2018-01-21T09:52:14.805Z,32.58
2018-01-21T09:54:42.233Z,32.13
2018-01-21T09:57:09.757Z,33.63
2018-01-21T09:59:37.158Z,36.65
2018-01-21T10:02:04.587Z,36.83
2018-01-21T10:04:32.023Z,34.28
2018-01-21T10:07:00.348Z,34.53
2018-01-21T10:09:27.766Z,37.92
2018-01-21T10:11:56.012Z,38.05
2018-01-21T10:14:23.569Z,33.70
2018-01-21T10:16:51.015Z,35.55
2018-01-21T10:19:18.458Z,36.22
2018-01-21T10:21:45.946Z,34.83
2018-01-21T10:24:13.500Z,37.10
2018-01-21T10:26:41.037Z,39.13
2018-01-21T10:29:08.481Z,38.13
2018-01-21T10:31:35.907Z,35.30
2018-01-21T10:34:03.408Z,36.42
2018-01-21T10:36:30.948Z,38.28
2018-01-21T10:38:58.508Z,37.03
2018-01-21T10:41:25.921Z,38.28
2018-01-21T10:43:54.146Z,38.58
2018-01-21T10:46:21.605Z,35.70
2018-01-21T10:48:49.890Z,37.22
2018-01-21T10:51:17.327Z,37.85
2018-01-21T10:53:44.750Z,38.25
2018-01-21T10:56:12.969Z,36.88
2018-01-21T10:58:40.434Z,35.38
2018-01-21T11:01:07.890Z,41.25
2018-01-21T11:03:35.334Z,36.30
2018-01-21T11:06:02.802Z,36.15
2018-01-21T11:08:30.241Z,36.70
2018-01-21T11:10:57.686Z,36.75
2018-01-21T11:13:25.130Z,38.25
2018-01-21T11:15:52.578Z,34.65
2018-01-21T11:18:20.792Z,36.28
2018-01-21T11:20:48.234Z,35.70
2018-01-21T11:23:15.673Z,36.60
2018-01-21T11:25:43.166Z,34.17
2018-01-21T11:28:10.585Z,34.20
2018-01-21T11:30:38.089Z,33.20
2018-01-21T11:33:05.518Z,33.93
2018-01-21T11:35:32.994Z,34.15
2018-01-21T11:38:00.489Z,34.80
2018-01-21T11:40:28.694Z,33.87
2018-01-21T11:42:56.160Z,35.42
2018-01-21T11:45:23.719Z,35.50
2018-01-21T11:47:51.130Z,34.85
2018-01-21T11:50:19.339Z,35.92
2018-01-21T11:52:46.818Z,34.70
2018-01-21T11:55:14.266Z,33.22
2018-01-21T11:57:41.701Z,34.90
2018-01-21T12:00:09.194Z,37.15
2018-01-21T12:02:36.649Z,36.08
2018-01-21T12:05:04.115Z,36.58
2018-01-21T12:07:32.306Z,35.20
2018-01-21T12:09:59.752Z,33.80
2018-01-21T12:12:27.186Z,34.50
2018-01-21T12:14:54.648Z,34.28
2018-01-21T12:17:22.091Z,33.85
2018-01-21T12:19:49.534Z,33.92
2018-01-21T12:22:16.969Z,32.33
2018-01-21T12:24:45.202Z,30.33
2018-01-21T12:27:12.736Z,30.95
2018-01-21T12:29:40.155Z,29.52
2018-01-21T12:32:08.465Z,32.65
2018-01-21T12:34:35.939Z,31.47
2018-01-21T12:37:03.374Z,31.58
2018-01-21T12:39:30.822Z,29.50
2018-01-21T12:41:58.257Z,29.60
2018-01-21T12:44:26.453Z,31.60
2018-01-21T12:46:54.333Z,30.42
2018-01-21T12:49:21.809Z,28.50
2018-01-21T12:51:49.346Z,29.48
2018-01-21T12:54:16.774Z,31.90
2018-01-21T12:56:44.974Z,31.25
2018-01-21T12:59:12.450Z,30.20
2018-01-21T13:01:39.904Z,29.57
2018-01-21T13:04:07.327Z,27.00
2018-01-21T13:06:35.201Z,28.42
2018-01-21T13:09:02.637Z,30.65
2018-01-21T13:11:30.120Z,29.77
2018-01-21T13:13:57.602Z,30.00
2018-01-21T13:16:25.056Z,28.87
2018-01-21T13:18:52.487Z,28.87
2018-01-21T13:21:19.937Z,27.23
2018-01-21T13:23:47.366Z,29.27
2018-01-21T13:26:15.593Z,27.08
2018-01-21T13:28:43.032Z,26.17
2018-01-21T13:31:10.453Z,27.58
2018-01-21T13:33:38.659Z,27.15
2018-01-21T13:36:06.084Z,26.30
2018-01-21T13:38:34.286Z,25.90
2018-01-21T13:41:01.778Z,25.77
2018-01-21T13:43:29.209Z,25.37
2018-01-21T13:45:56.760Z,25.20
2018-01-21T13:48:24.246Z,26.50
2018-01-21T13:50:51.879Z,27.50
2018-01-21T13:53:19.288Z,26.25
2018-01-21T13:55:46.829Z,25.25
2018-01-21T13:58:14.260Z,25.48
2018-01-21T14:00:41.714Z,26.80
2018-01-21T14:03:09.141Z,26.25
2018-01-21T14:05:36.578Z,27.20
2018-01-21T14:08:04.773Z,25.75
2018-01-21T14:10:32.262Z,28.02
2018-01-21T14:12:59.685Z,29.00
2018-01-21T14:15:27.158Z,27.95
2018-01-21T14:17:54.565Z,27.83
2018-01-21T14:20:22.070Z,26.55
2018-01-21T14:22:49.549Z,26.05
2018-01-21T14:25:16.978Z,26.55
2018-01-21T14:27:44.454Z,26.20
2018-01-21T14:30:11.918Z,26.70
2018-01-21T14:32:39.363Z,25.98
2018-01-21T14:35:06.801Z,26.70
2018-01-21T14:37:34.236Z,28.50
2018-01-21T14:40:02.540Z,28.50
2018-01-21T14:42:30.018Z,31.52
2018-01-21T14:44:57.490Z,32.35
2018-01-21T14:47:25.010Z,29.45
2018-01-21T14:49:52.466Z,29.95
2018-01-21T14:52:19.949Z,33.15
2018-01-21T14:54:47.378Z,35.58
2018-01-21T14:57:14.861Z,35.38
2018-01-21T14:59:42.305Z,33.33
2018-01-21T15:02:09.754Z,34.33
2018-01-21T15:04:37.185Z,36.15
2018-01-21T15:07:05.432Z,34.55
2018-01-21T15:09:33.085Z,35.92
2018-01-21T15:12:00.612Z,33.47
2018-01-21T15:14:28.023Z,36.35
2018-01-21T15:16:56.243Z,37.03
2018-01-21T15:19:23.678Z,36.47
2018-01-21T15:21:51.143Z,35.47
2018-01-21T15:24:18.595Z,34.92
2018-01-21T15:26:46.058Z,36.75
2018-01-21T15:29:13.482Z,36.42
2018-01-21T15:31:41.690Z,35.88
2018-01-21T15:34:09.266Z,35.33
2018-01-21T15:36:36.729Z,34.05
2018-01-21T15:39:04.166Z,35.78
2018-01-21T15:41:31.614Z,34.22
2018-01-21T15:43:59.049Z,35.55
2018-01-21T15:46:26.563Z,33.83
2018-01-21T15:48:53.982Z,34.17
2018-01-21T15:51:21.543Z,32.85
2018-01-21T15:53:48.961Z,33.30
2018-01-21T15:56:17.188Z,33.55
2018-01-21T15:58:44.613Z,35.87
2018-01-21T16:01:12.187Z,36.60
2018-01-21T16:03:39.611Z,37.50
2018-01-21T16:06:07.839Z,36.28
2018-01-21T16:08:35.270Z,37.70
2018-01-21T16:11:02.701Z,37.47
2018-01-21T16:13:30.913Z,37.22
2018-01-21T16:15:58.391Z,37.30
2018-01-21T16:18:26.019Z,36.50
2018-01-21T16:20:53.446Z,35.80
2018-01-21T16:23:21.637Z,35.92
2018-01-21T16:25:49.077Z,35.80
2018-01-21T16:28:17.382Z,34.80
2018-01-21T16:30:44.821Z,34.97
2018-01-21T16:33:12.293Z,33.03
2018-01-21T16:35:39.750Z,35.30
2018-01-21T16:38:19.286Z,33.45
2018-01-21T16:40:46.782Z,34.20
2018-01-21T16:43:14.194Z,34.95
2018-01-21T16:45:41.676Z,37.85
2018-01-21T16:48:09.103Z,34.63
2018-01-21T16:50:36.593Z,34.70
2018-01-21T16:53:04.049Z,31.33
2018-01-21T16:55:31.481Z,34.50
2018-01-21T16:57:58.909Z,33.92
2018-01-21T17:00:27.126Z,34.47
2018-01-21T17:02:54.602Z,33.67
2018-01-21T17:05:22.041Z,32.08
2018-01-21T17:07:49.511Z,32.40
2018-01-21T17:10:17.041Z,33.28
2018-01-21T17:12:44.495Z,29.35
2018-01-21T17:15:12.057Z,28.23
2018-01-21T17:17:39.480Z,28.00
2018-01-21T17:20:07.706Z,29.60
2018-01-21T17:22:35.151Z,28.08
2018-01-21T17:25:02.594Z,30.55
2018-01-21T17:27:30.073Z,29.23
2018-01-21T17:29:57.713Z,25.92
2018-01-21T17:32:25.185Z,24.00
2018-01-21T17:34:52.622Z,24.23
2018-01-21T17:37:20.071Z,24.12
2018-01-21T17:39:47.508Z,26.60
2018-01-21T17:42:15.731Z,23.90
2018-01-21T17:44:43.181Z,22.05
2018-01-21T17:47:10.640Z,22.37
2018-01-21T17:49:38.077Z,22.08
2018-01-21T17:52:05.639Z,23.75
2018-01-21T17:54:33.094Z,23.00
2018-01-21T17:57:00.507Z,22.52
2018-01-21T17:59:28.697Z,24.27
2018-01-21T18:01:56.897Z,23.02
2018-01-21T18:04:24.325Z,24.27
2018-01-21T18:06:52.545Z,22.17
2018-01-21T18:09:20.005Z,23.77
2018-01-21T18:11:47.461Z,23.25
2018-01-21T18:14:14.897Z,21.52
2018-01-21T18:16:42.477Z,21.80
2018-01-21T18:19:09.903Z,22.40
2018-01-21T18:21:37.390Z,22.20
2018-01-21T18:24:04.822Z,20.52
2018-01-21T18:26:32.301Z,20.98
2018-01-21T18:28:59.839Z,21.67
2018-01-21T18:31:27.294Z,21.02
2018-01-21T18:33:54.745Z,21.00
2018-01-21T18:36:22.169Z,21.62
2018-01-21T18:38:50.400Z,21.15
2018-01-21T18:41:17.827Z,21.90
2018-01-21T18:43:45.285Z,21.10
2018-01-21T18:46:12.864Z,20.52
2018-01-21T18:48:40.306Z,20.23
2018-01-21T18:51:07.743Z,20.83
2018-01-21T18:53:35.255Z,19.98
2018-01-21T18:56:02.806Z,19.52
2018-01-21T18:58:30.249Z,20.45
2018-01-21T19:00:57.685Z,24.85
2018-01-21T19:03:25.186Z,21.75
2018-01-21T19:05:52.609Z,23.40
2018-01-21T19:08:20.042Z,22.73
2018-01-21T19:10:47.631Z,21.27
2018-01-21T19:13:15.090Z,21.27
2018-01-21T19:15:42.508Z,20.80
2018-01-21T19:18:10.710Z,22.00
2018-01-21T19:20:38.187Z,20.67
2018-01-21T19:23:05.637Z,22.80
2018-01-21T19:25:33.089Z,21.52
2018-01-21T19:28:00.550Z,21.02
2018-01-21T19:30:28.015Z,22.90
2018-01-21T19:32:55.470Z,24.08
2018-01-21T19:35:22.909Z,21.05
2018-01-21T19:37:50.353Z,22.87
2018-01-21T19:40:23.401Z,23.08
2018-01-21T19:42:54.523Z,23.02
2018-01-21T19:45:21.964Z,22.75
2018-01-21T19:47:49.396Z,21.25
2018-01-21T19:50:16.974Z,22.15
2018-01-21T19:52:44.438Z,23.80
2018-01-21T19:55:11.891Z,25.67
2018-01-21T19:57:39.346Z,24.83
2018-01-21T20:00:06.810Z,24.10
2018-01-21T20:02:34.271Z,23.75
2018-01-21T20:05:01.718Z,25.35
2018-01-21T20:07:29.150Z,26.50
2018-01-21T20:09:56.642Z,24.23
2018-01-21T20:12:24.165Z,26.30
2018-01-21T20:14:51.641Z,26.80
2018-01-21T20:17:19.070Z,27.30
2018-01-21T20:19:46.522Z,28.00
2018-01-21T20:22:13.946Z,27.97
2018-01-21T20:24:42.145Z,27.30
2018-01-21T20:27:09.637Z,29.67
2018-01-21T20:29:37.177Z,26.30
2018-01-21T20:32:04.658Z,28.90
2018-01-21T20:34:32.175Z,28.60
2018-01-21T20:36:59.664Z,27.27
2018-01-21T20:39:27.158Z,26.52
2018-01-21T20:41:54.664Z,26.92
2018-01-21T20:44:22.254Z,27.33
2018-01-21T20:46:49.722Z,25.77
2018-01-21T20:49:17.184Z,28.25
2018-01-21T20:51:50.366Z,27.25
2018-01-21T20:54:23.696Z,28.38
2018-01-21T20:56:52.202Z,28.98
2018-01-21T20:59:19.812Z,28.80
2018-01-21T21:01:47.318Z,30.25
2018-01-21T21:04:14.753Z,29.27
2018-01-21T21:06:42.186Z,28.70
2018-01-21T21:09:10.404Z,28.87
2018-01-21T21:11:37.877Z,28.42
2018-01-21T21:14:05.319Z,30.10
2018-01-21T21:16:32.750Z,30.65
2018-01-21T21:19:00.229Z,27.52
2018-01-21T21:21:27.705Z,30.70
2018-01-21T21:23:55.157Z,31.02
2018-01-21T21:26:22.597Z,30.92
2018-01-21T21:28:50.026Z,32.47
2018-01-21T21:31:18.242Z,30.35
2018-01-21T21:33:45.810Z,31.60
2018-01-21T21:36:13.242Z,32.10
2018-01-21T21:38:40.683Z,32.95
2018-01-21T21:41:08.174Z,31.67
2018-01-21T21:43:35.604Z,30.83
2018-01-21T21:46:03.099Z,31.60
2018-01-21T21:48:30.484Z,30.23
2018-01-21T21:50:58.719Z,29.20
2018-01-21T21:53:26.260Z,28.83
2018-01-21T21:55:53.739Z,27.60
2018-01-21T21:58:21.185Z,24.15
2018-01-21T22:00:48.622Z,26.25
2018-01-21T22:03:16.049Z,25.60
2018-01-21T22:05:44.261Z,25.20
2018-01-21T22:08:11.681Z,23.20
2018-01-21T22:10:39.905Z,23.00
2018-01-21T22:13:07.462Z,23.95
2018-01-21T22:15:34.901Z,23.23
2018-01-21T22:18:02.377Z,23.60
2018-01-21T22:20:29.816Z,24.00
2018-01-21T22:22:57.282Z,22.90
2018-01-21T22:25:24.713Z,22.60
2018-01-21T22:27:52.130Z,22.93
2018-01-21T22:30:19.566Z,22.67
2018-01-21T22:32:47.010Z,23.40
2018-01-21T22:35:14.433Z,25.10
2018-01-21T22:37:41.930Z,23.27
2018-01-21T22:40:09.366Z,22.77
2018-01-21T22:42:36.845Z,24.30
2018-01-21T22:45:04.307Z,24.08
2018-01-21T22:47:31.746Z,24.00
2018-01-21T22:49:59.199Z,23.67
2018-01-21T22:52:26.642Z,22.37
2018-01-21T22:54:54.130Z,21.90
2018-01-21T22:57:21.562Z,23.25
2018-01-21T22:59:49.038Z,22.87
2018-01-21T23:02:16.476Z,22.20
2018-01-21T23:04:43.906Z,21.55
2018-01-21T23:07:12.130Z,22.25
2018-01-21T23:09:39.571Z,22.73
2018-01-21T23:12:06.998Z,21.50
2018-01-21T23:14:34.514Z,21.17
2018-01-21T23:17:01.974Z,21.37
2018-01-21T23:19:29.396Z,21.42
2018-01-21T23:21:56.873Z,23.30
2018-01-21T23:24:24.300Z,21.77
2018-01-21T23:26:51.774Z,21.52
2018-01-21T23:29:19.205Z,22.20
2018-01-21T23:31:46.642Z,23.70
2018-01-21T23:34:14.848Z,23.50
2018-01-21T23:36:42.326Z,22.73
2018-01-21T23:39:09.772Z,23.65
2018-01-21T23:41:37.225Z,22.37
2018-01-21T23:44:04.690Z,22.37
2018-01-21T23:46:32.137Z,21.60
2018-01-21T23:48:59.597Z,21.43
2018-01-21T23:51:27.054Z,21.30
2018-01-21T23:53:54.496Z,23.55
2018-01-21T23:56:21.945Z,23.92
2018-01-21T23:58:49.438Z,23.90
